sensor_id;sensor_type;location;lat;lon;timestamp;pressure;altitude;pressure_sealevel;temperature;humidity
27014;BME280;14556;52.222;4.510;2022-07-10T00:00:41;102714.31;;;14.62;100.00
27014;BME280;14556;52.222;4.510;2022-07-10T00:03:08;102716.16;;;14.61;100.00
27014;BME280;14556;52.222;4.510;2022-07-10T00:05:35;102722.59;;;14.60;100.00
27014;BME280;14556;52.222;4.510;2022-07-10T00:08:02;102718.94;;;14.53;100.00
27014;BME280;14556;52.222;4.510;2022-07-10T00:10:29;102711.84;;;14.52;100.00
27014;BME280;14556;52.222;4.510;2022-07-10T00:12:56;102719.91;;;14.52;100.00
27014;BME280;14556;52.222;4.510;2022-07-10T00:15:23;102712.69;;;14.53;100.00
27014;BME280;14556;52.222;4.510;2022-07-10T00:17:49;102707.13;;;14.54;100.00
27014;BME280;14556;52.222;4.510;2022-07-10T00:20:16;102705.66;;;14.52;100.00
27014;BME280;14556;52.222;4.510;2022-07-10T00:22:43;102695.03;;;14.50;100.00
27014;BME280;14556;52.222;4.510;2022-07-10T00:25:11;102698.56;;;14.50;100.00
27014;BME280;14556;52.222;4.510;2022-07-10T00:27:39;102708.66;;;14.48;100.00
27014;BME280;14556;52.222;4.510;2022-07-10T00:30:06;102699.13;;;14.46;100.00
27014;BME280;14556;52.222;4.510;2022-07-10T00:32:33;102694.56;;;14.46;100.00
27014;BME280;14556;52.222;4.510;2022-07-10T00:34:59;102697.28;;;14.46;100.00
27014;BME280;14556;52.222;4.510;2022-07-10T00:37:28;102704.84;;;14.43;100.00
27014;BME280;14556;52.222;4.510;2022-07-10T00:39:55;102693.78;;;14.37;100.00
27014;BME280;14556;52.222;4.510;2022-07-10T00:42:22;102704.56;;;14.37;100.00
27014;BME280;14556;52.222;4.510;2022-07-10T00:44:48;102702.19;;;14.34;100.00
27014;BME280;14556;52.222;4.510;2022-07-10T00:47:15;102696.50;;;14.29;100.00
27014;BME280;14556;52.222;4.510;2022-07-10T00:49:45;102691.84;;;14.23;100.00
27014;BME280;14556;52.222;4.510;2022-07-10T00:52:15;102693.88;;;14.21;100.00
27014;BME280;14556;52.222;4.510;2022-07-10T00:54:44;102670.91;;;14.10;100.00
27014;BME280;14556;52.222;4.510;2022-07-10T00:57:12;102674.06;;;14.13;100.00
27014;BME280;14556;52.222;4.510;2022-07-10T00:59:41;102683.78;;;14.23;100.00
27014;BME280;14556;52.222;4.510;2022-07-10T01:02:08;102691.00;;;14.22;100.00
27014;BME280;14556;52.222;4.510;2022-07-10T01:04:35;102692.88;;;14.22;100.00
27014;BME280;14556;52.222;4.510;2022-07-10T01:07:02;102694.06;;;14.19;100.00
27014;BME280;14556;52.222;4.510;2022-07-10T01:09:29;102696.38;;;14.22;100.00
27014;BME280;14556;52.222;4.510;2022-07-10T01:12:00;102690.88;;;14.16;100.00
27014;BME280;14556;52.222;4.510;2022-07-10T01:14:28;102693.03;;;14.20;100.00
27014;BME280;14556;52.222;4.510;2022-07-10T01:16:59;102687.50;;;14.22;100.00
27014;BME280;14556;52.222;4.510;2022-07-10T01:19:25;102687.97;;;14.25;100.00
27014;BME280;14556;52.222;4.510;2022-07-10T01:21:52;102685.63;;;14.22;100.00
27014;BME280;14556;52.222;4.510;2022-07-10T01:24:19;102674.97;;;14.29;100.00
27014;BME280;14556;52.222;4.510;2022-07-10T01:26:45;102669.25;;;14.32;100.00
27014;BME280;14556;52.222;4.510;2022-07-10T01:29:11;102671.78;;;14.34;100.00
27014;BME280;14556;52.222;4.510;2022-07-10T01:31:38;102664.50;;;14.34;100.00
27014;BME280;14556;52.222;4.510;2022-07-10T01:34:09;102661.66;;;14.36;100.00
27014;BME280;14556;52.222;4.510;2022-07-10T01:36:36;102669.00;;;14.42;100.00
27014;BME280;14556;52.222;4.510;2022-07-10T01:39:04;102659.28;;;14.41;100.00
27014;BME280;14556;52.222;4.510;2022-07-10T01:41:32;102665.09;;;14.45;100.00
27014;BME280;14556;52.222;4.510;2022-07-10T01:44:00;102656.22;;;14.44;100.00
27014;BME280;14556;52.222;4.510;2022-07-10T01:46:27;102651.19;;;14.41;100.00
27014;BME280;14556;52.222;4.510;2022-07-10T01:48:53;102643.56;;;14.45;100.00
27014;BME280;14556;52.222;4.510;2022-07-10T01:51:20;102650.84;;;14.44;100.00
27014;BME280;14556;52.222;4.510;2022-07-10T01:53:47;102656.22;;;14.44;100.00
27014;BME280;14556;52.222;4.510;2022-07-10T01:56:14;102657.22;;;14.43;100.00
27014;BME280;14556;52.222;4.510;2022-07-10T01:58:41;102651.00;;;14.43;100.00
27014;BME280;14556;52.222;4.510;2022-07-10T02:01:09;102650.34;;;14.41;100.00
27014;BME280;14556;52.222;4.510;2022-07-10T02:03:36;102646.81;;;14.40;100.00
27014;BME280;14556;52.222;4.510;2022-07-10T02:06:21;102648.97;;;14.45;100.00
27014;BME280;14556;52.222;4.510;2022-07-10T02:08:47;102653.53;;;14.44;100.00
27014;BME280;14556;52.222;4.510;2022-07-10T02:11:14;102639.22;;;14.44;100.00
27014;BME280;14556;52.222;4.510;2022-07-10T02:13:40;102634.88;;;14.43;100.00
27014;BME280;14556;52.222;4.510;2022-07-10T02:16:07;102632.16;;;14.43;100.00
27014;BME280;14556;52.222;4.510;2022-07-10T02:18:33;102650.00;;;14.44;100.00
27014;BME280;14556;52.222;4.510;2022-07-10T02:21:00;102655.38;;;14.44;100.00
27014;BME280;14556;52.222;4.510;2022-07-10T02:23:27;102647.47;;;14.42;100.00
27014;BME280;14556;52.222;4.510;2022-07-10T02:25:54;102646.16;;;14.38;100.00
27014;BME280;14556;52.222;4.510;2022-07-10T02:28:20;102650.91;;;14.36;100.00
27014;BME280;14556;52.222;4.510;2022-07-10T02:30:47;102651.41;;;14.31;100.00
27014;BME280;14556;52.222;4.510;2022-07-10T02:33:13;102661.53;;;14.29;100.00
27014;BME280;14556;52.222;4.510;2022-07-10T02:35:40;102663.59;;;14.27;100.00
27014;BME280;14556;52.222;4.510;2022-07-10T02:38:06;102655.84;;;14.24;100.00
27014;BME280;14556;52.222;4.510;2022-07-10T02:40:32;102666.78;;;14.22;100.00
27014;BME280;14556;52.222;4.510;2022-07-10T02:42:59;102659.75;;;14.21;100.00
27014;BME280;14556;52.222;4.510;2022-07-10T02:45:26;102661.03;;;14.25;100.00
27014;BME280;14556;52.222;4.510;2022-07-10T02:47:52;102655.66;;;14.25;100.00
27014;BME280;14556;52.222;4.510;2022-07-10T02:50:19;102655.31;;;14.29;100.00
27014;BME280;14556;52.222;4.510;2022-07-10T02:52:45;102658.31;;;14.34;100.00
27014;BME280;14556;52.222;4.510;2022-07-10T02:55:12;102656.44;;;14.34;100.00
27014;BME280;14556;52.222;4.510;2022-07-10T02:57:38;102650.91;;;14.36;100.00
27014;BME280;14556;52.222;4.510;2022-07-10T03:00:05;102653.41;;;14.37;100.00
27014;BME280;14556;52.222;4.510;2022-07-10T03:02:32;102641.91;;;14.44;100.00
27014;BME280;14556;52.222;4.510;2022-07-10T03:04:58;102646.09;;;14.46;100.00
27014;BME280;14556;52.222;4.510;2022-07-10T03:07:25;102642.88;;;14.51;100.00
27014;BME280;14556;52.222;4.510;2022-07-10T03:09:51;102637.13;;;14.54;100.00
27014;BME280;14556;52.222;4.510;2022-07-10T03:12:17;102644.00;;;14.57;100.00
27014;BME280;14556;52.222;4.510;2022-07-10T03:14:44;102636.56;;;14.59;100.00
27014;BME280;14556;52.222;4.510;2022-07-10T03:17:10;102635.38;;;14.61;100.00
27014;BME280;14556;52.222;4.510;2022-07-10T03:19:37;102629.81;;;14.63;100.00
27014;BME280;14556;52.222;4.510;2022-07-10T03:22:04;102625.94;;;14.66;100.00
27014;BME280;14556;52.222;4.510;2022-07-10T03:24:30;102624.16;;;14.73;100.00
27014;BME280;14556;52.222;4.510;2022-07-10T03:26:57;102624.81;;;14.75;100.00
27014;BME280;14556;52.222;4.510;2022-07-10T03:29:23;102624.63;;;14.77;100.00
27014;BME280;14556;52.222;4.510;2022-07-10T03:31:50;102626.50;;;14.76;100.00
27014;BME280;14556;52.222;4.510;2022-07-10T03:34:16;102626.31;;;14.78;100.00
27014;BME280;14556;52.222;4.510;2022-07-10T03:36:43;102621.94;;;14.77;100.00
27014;BME280;14556;52.222;4.510;2022-07-10T03:39:09;102618.41;;;14.76;100.00
27014;BME280;14556;52.222;4.510;2022-07-10T03:41:36;102619.22;;;14.77;100.00
27014;BME280;14556;52.222;4.510;2022-07-10T03:44:02;102615.34;;;14.79;100.00
27014;BME280;14556;52.222;4.510;2022-07-10T03:46:29;102618.84;;;14.80;100.00
27014;BME280;14556;52.222;4.510;2022-07-10T03:48:55;102617.00;;;14.80;100.00
27014;BME280;14556;52.222;4.510;2022-07-10T03:51:21;102621.56;;;14.80;100.00
27014;BME280;14556;52.222;4.510;2022-07-10T03:53:48;102616.34;;;14.78;100.00
27014;BME280;14556;52.222;4.510;2022-07-10T03:56:14;102603.72;;;14.79;100.00
27014;BME280;14556;52.222;4.510;2022-07-10T03:59:01;102603.53;;;14.80;100.00
27014;BME280;14556;52.222;4.510;2022-07-10T04:01:27;102596.69;;;14.78;100.00
27014;BME280;14556;52.222;4.510;2022-07-10T04:03:54;102595.84;;;14.77;100.00
27014;BME280;14556;52.222;4.510;2022-07-10T04:06:20;102612.78;;;14.86;100.00
27014;BME280;14556;52.222;4.510;2022-07-10T04:08:47;102603.03;;;14.85;100.00
27014;BME280;14556;52.222;4.510;2022-07-10T04:11:14;102602.00;;;14.86;100.00
27014;BME280;14556;52.222;4.510;2022-07-10T04:13:40;102602.84;;;14.86;100.00
27014;BME280;14556;52.222;4.510;2022-07-10T04:16:07;102597.94;;;14.90;100.00
27014;BME280;14556;52.222;4.510;2022-07-10T04:18:36;102611.56;;;14.89;100.00
27014;BME280;14556;52.222;4.510;2022-07-10T04:21:03;102613.44;;;14.88;100.00
27014;BME280;14556;52.222;4.510;2022-07-10T04:23:30;102615.28;;;14.88;100.00
27014;BME280;14556;52.222;4.510;2022-07-10T04:25:56;102618.00;;;14.88;100.00
27014;BME280;14556;52.222;4.510;2022-07-10T04:28:23;102616.81;;;14.90;100.00
27014;BME280;14556;52.222;4.510;2022-07-10T04:30:49;102626.53;;;14.91;100.00
27014;BME280;14556;52.222;4.510;2022-07-10T04:33:16;102626.72;;;14.90;100.00
27014;BME280;14556;52.222;4.510;2022-07-10T04:35:42;102623.66;;;14.93;100.00
27014;BME280;14556;52.222;4.510;2022-07-10T04:38:09;102626.16;;;14.94;100.00
27014;BME280;14556;52.222;4.510;2022-07-10T04:40:35;102624.50;;;14.93;100.00
27014;BME280;14556;52.222;4.510;2022-07-10T04:43:02;102628.88;;;14.94;100.00
27014;BME280;14556;52.222;4.510;2022-07-10T04:45:28;102636.56;;;14.97;100.00
27014;BME280;14556;52.222;4.510;2022-07-10T04:47:55;102641.78;;;14.99;100.00
27014;BME280;14556;52.222;4.510;2022-07-10T04:50:21;102646.63;;;15.04;100.00
27014;BME280;14556;52.222;4.510;2022-07-10T04:52:48;102633.16;;;15.04;100.00
27014;BME280;14556;52.222;4.510;2022-07-10T04:55:14;102643.75;;;15.05;100.00
27014;BME280;14556;52.222;4.510;2022-07-10T04:57:40;102636.50;;;15.06;100.00
27014;BME280;14556;52.222;4.510;2022-07-10T05:00:11;102642.06;;;15.04;100.00
27014;BME280;14556;52.222;4.510;2022-07-10T05:02:37;102640.03;;;15.06;100.00
27014;BME280;14556;52.222;4.510;2022-07-10T05:05:04;102637.31;;;15.06;100.00
27014;BME280;14556;52.222;4.510;2022-07-10T05:07:31;102628.25;;;15.07;100.00
27014;BME280;14556;52.222;4.510;2022-07-10T05:09:58;102640.69;;;15.08;100.00
27014;BME280;14556;52.222;4.510;2022-07-10T05:12:24;102638.25;;;15.14;100.00
27014;BME280;14556;52.222;4.510;2022-07-10T05:14:50;102626.47;;;15.15;100.00
27014;BME280;14556;52.222;4.510;2022-07-10T05:17:17;102624.78;;;15.14;100.00
27014;BME280;14556;52.222;4.510;2022-07-10T05:19:43;102635.19;;;15.17;100.00
27014;BME280;14556;52.222;4.510;2022-07-10T05:22:10;102633.16;;;15.19;100.00
27014;BME280;14556;52.222;4.510;2022-07-10T05:24:37;102635.47;;;15.22;100.00
27014;BME280;14556;52.222;4.510;2022-07-10T05:27:04;102628.41;;;15.21;100.00
27014;BME280;14556;52.222;4.510;2022-07-10T05:29:30;102628.41;;;15.21;100.00
27014;BME280;14556;52.222;4.510;2022-07-10T05:31:57;102624.88;;;15.20;100.00
27014;BME280;14556;52.222;4.510;2022-07-10T05:34:23;102630.91;;;15.22;100.00
27014;BME280;14556;52.222;4.510;2022-07-10T05:36:50;102630.72;;;15.24;100.00
27014;BME280;14556;52.222;4.510;2022-07-10T05:39:16;102626.38;;;15.23;100.00
27014;BME280;14556;52.222;4.510;2022-07-10T05:41:43;102621.66;;;15.25;100.00
27014;BME280;14556;52.222;4.510;2022-07-10T05:44:09;102624.97;;;15.27;100.00
27014;BME280;14556;52.222;4.510;2022-07-10T05:46:35;102625.44;;;15.31;100.00
27014;BME280;14556;52.222;4.510;2022-07-10T05:49:02;102624.88;;;15.35;100.00
27014;BME280;14556;52.222;4.510;2022-07-10T05:51:28;102617.25;;;15.39;100.00
27014;BME280;14556;52.222;4.510;2022-07-10T05:53:59;102614.38;;;15.41;100.00
27014;BME280;14556;52.222;4.510;2022-07-10T05:56:25;102622.66;;;15.39;100.00
27014;BME280;14556;52.222;4.510;2022-07-10T05:58:52;102627.66;;;15.42;100.00
27014;BME280;14556;52.222;4.510;2022-07-10T06:01:22;102628.13;;;15.46;100.00
27014;BME280;14556;52.222;4.510;2022-07-10T06:03:49;102622.34;;;15.49;100.00
27014;BME280;14556;52.222;4.510;2022-07-10T06:06:15;102618.25;;;15.53;100.00
27014;BME280;14556;52.222;4.510;2022-07-10T06:08:43;102613.31;;;15.57;100.00
27014;BME280;14556;52.222;4.510;2022-07-10T06:11:10;102619.81;;;15.63;100.00
27014;BME280;14556;52.222;4.510;2022-07-10T06:13:37;102616.72;;;15.66;100.00
27014;BME280;14556;52.222;4.510;2022-07-10T06:16:04;102614.69;;;15.68;100.00
27014;BME280;14556;52.222;4.510;2022-07-10T06:18:31;102611.78;;;15.69;100.00
27014;BME280;14556;52.222;4.510;2022-07-10T06:20:58;102611.59;;;15.71;100.00
27014;BME280;14556;52.222;4.510;2022-07-10T06:23:29;102613.09;;;15.74;100.00
27014;BME280;14556;52.222;4.510;2022-07-10T06:25:55;102614.56;;;15.76;100.00
27014;BME280;14556;52.222;4.510;2022-07-10T06:28:22;102616.06;;;15.79;100.00
27014;BME280;14556;52.222;4.510;2022-07-10T06:30:49;102613.44;;;15.86;100.00
27014;BME280;14556;52.222;4.510;2022-07-10T06:33:15;102610.81;;;15.92;100.00
27014;BME280;14556;52.222;4.510;2022-07-10T06:35:42;102612.09;;;15.97;100.00
27014;BME280;14556;52.222;4.510;2022-07-10T06:38:09;102611.75;;;16.00;100.00
27014;BME280;14556;52.222;4.510;2022-07-10T06:40:37;102613.03;;;16.04;100.00
27014;BME280;14556;52.222;4.510;2022-07-10T06:43:05;102624.66;;;16.04;100.00
27014;BME280;14556;52.222;4.510;2022-07-10T06:45:32;102617.78;;;16.02;100.00
27014;BME280;14556;52.222;4.510;2022-07-10T06:48:01;102623.66;;;16.05;100.00
27014;BME280;14556;52.222;4.510;2022-07-10T06:50:29;102620.56;;;16.09;100.00
27014;BME280;14556;52.222;4.510;2022-07-10T06:52:58;102622.66;;;16.13;100.00
27014;BME280;14556;52.222;4.510;2022-07-10T06:55:26;102619.59;;;16.16;100.00
27014;BME280;14556;52.222;4.510;2022-07-10T06:57:53;102620.22;;;16.18;100.00
27014;BME280;14556;52.222;4.510;2022-07-10T07:00:21;102624.44;;;16.21;100.00
27014;BME280;14556;52.222;4.510;2022-07-10T07:02:47;102622.53;;;16.22;100.00
27014;BME280;14556;52.222;4.510;2022-07-10T07:05:14;102630.28;;;16.25;100.00
27014;BME280;14556;52.222;4.510;2022-07-10T07:07:41;102629.44;;;16.24;100.00
27014;BME280;14556;52.222;4.510;2022-07-10T07:10:08;102629.22;;;16.26;100.00
27014;BME280;14556;52.222;4.510;2022-07-10T07:12:35;102628.84;;;16.29;100.00
27014;BME280;14556;52.222;4.510;2022-07-10T07:15:02;102623.34;;;16.37;100.00
27014;BME280;14556;52.222;4.510;2022-07-10T07:17:29;102631.50;;;16.44;100.00
27014;BME280;14556;52.222;4.510;2022-07-10T07:20:12;102630.50;;;16.52;100.00
27014;BME280;14556;52.222;4.510;2022-07-10T07:22:57;102630.50;;;16.52;100.00
27014;BME280;14556;52.222;4.510;2022-07-10T07:25:39;102628.38;;;16.47;100.00
27014;BME280;14556;52.222;4.510;2022-07-10T07:28:09;102633.34;;;16.43;100.00
27014;BME280;14556;52.222;4.510;2022-07-10T07:30:36;102635.78;;;16.38;100.00
27014;BME280;14556;52.222;4.510;2022-07-10T07:33:03;102634.88;;;16.31;100.00
27014;BME280;14556;52.222;4.510;2022-07-10T07:35:30;102636.13;;;16.28;100.00
27014;BME280;14556;52.222;4.510;2022-07-10T07:37:56;102638.25;;;16.33;100.00
27014;BME280;14556;52.222;4.510;2022-07-10T07:40:23;102630.78;;;16.35;100.00
27014;BME280;14556;52.222;4.510;2022-07-10T07:42:51;102636.03;;;16.43;100.00
27014;BME280;14556;52.222;4.510;2022-07-10T07:45:17;102630.44;;;16.45;100.00
27014;BME280;14556;52.222;4.510;2022-07-10T07:47:47;102640.03;;;16.48;100.00
27014;BME280;14556;52.222;4.510;2022-07-10T07:50:16;102641.31;;;16.52;100.00
27014;BME280;14556;52.222;4.510;2022-07-10T07:52:44;102638.84;;;16.57;100.00
27014;BME280;14556;52.222;4.510;2022-07-10T07:55:14;102642.00;;;16.61;100.00
27014;BME280;14556;52.222;4.510;2022-07-10T07:57:42;102633.28;;;16.65;100.00
27014;BME280;14556;52.222;4.510;2022-07-10T08:00:10;102635.00;;;16.66;100.00
27014;BME280;14556;52.222;4.510;2022-07-10T08:02:37;102637.75;;;16.73;100.00
27014;BME280;14556;52.222;4.510;2022-07-10T08:05:04;102629.28;;;16.83;100.00
27014;BME280;14556;52.222;4.510;2022-07-10T08:07:40;102631.66;;;16.93;100.00
27014;BME280;14556;52.222;4.510;2022-07-10T08:10:09;102628.97;;;17.00;100.00
27014;BME280;14556;52.222;4.510;2022-07-10T08:12:35;102631.94;;;17.05;100.00
27014;BME280;14556;52.222;4.510;2022-07-10T08:15:02;102627.97;;;17.08;100.00
27014;BME280;14556;52.222;4.510;2022-07-10T08:17:29;102632.19;;;17.10;100.00
27014;BME280;14556;52.222;4.510;2022-07-10T08:19:55;102630.13;;;17.12;100.00
27014;BME280;14556;52.222;4.510;2022-07-10T08:22:22;102630.16;;;17.19;100.00
27014;BME280;14556;52.222;4.510;2022-07-10T08:24:48;102625.84;;;17.25;100.00
27014;BME280;14556;52.222;4.510;2022-07-10T08:27:14;102625.44;;;17.28;100.00
27014;BME280;14556;52.222;4.510;2022-07-10T08:29:42;102631.41;;;17.23;100.00
27014;BME280;14556;52.222;4.510;2022-07-10T08:32:08;102628.09;;;17.21;100.00
27014;BME280;14556;52.222;4.510;2022-07-10T08:34:36;102622.06;;;17.19;100.00
27014;BME280;14556;52.222;4.510;2022-07-10T08:37:03;102618.50;;;17.19;100.00
27014;BME280;14556;52.222;4.510;2022-07-10T08:39:30;102620.00;;;17.21;100.00
27014;BME280;14556;52.222;4.510;2022-07-10T08:41:58;102620.59;;;17.23;100.00
27014;BME280;14556;52.222;4.510;2022-07-10T08:44:24;102623.97;;;17.32;100.00
27014;BME280;14556;52.222;4.510;2022-07-10T08:46:51;102625.25;;;17.36;100.00
27014;BME280;14556;52.222;4.510;2022-07-10T08:49:20;102623.19;;;17.38;100.00
27014;BME280;14556;52.222;4.510;2022-07-10T08:51:57;102616.97;;;17.45;100.00
27014;BME280;14556;52.222;4.510;2022-07-10T08:54:26;102615.97;;;17.52;100.00
27014;BME280;14556;52.222;4.510;2022-07-10T08:56:56;102602.41;;;17.46;100.00
27014;BME280;14556;52.222;4.510;2022-07-10T08:59:22;102614.06;;;17.53;100.00
27014;BME280;14556;52.222;4.510;2022-07-10T09:01:57;102614.91;;;17.54;100.00
27014;BME280;14556;52.222;4.510;2022-07-10T09:04:25;102593.25;;;17.47;100.00
27014;BME280;14556;52.222;4.510;2022-07-10T09:06:53;102608.88;;;17.58;100.00
27014;BME280;14556;52.222;4.510;2022-07-10T09:09:20;102611.59;;;17.58;100.00
27014;BME280;14556;52.222;4.510;2022-07-10T09:11:47;102606.63;;;17.62;100.00
27014;BME280;14556;52.222;4.510;2022-07-10T09:14:15;102610.38;;;17.68;100.00
27014;BME280;14556;52.222;4.510;2022-07-10T09:16:59;102596.66;;;17.69;100.00
27014;BME280;14556;52.222;4.510;2022-07-10T09:19:27;102595.00;;;17.68;100.00
27014;BME280;14556;52.222;4.510;2022-07-10T09:22:04;102600.84;;;17.72;100.00
27014;BME280;14556;52.222;4.510;2022-07-10T09:24:43;102598.16;;;17.79;100.00
27014;BME280;14556;52.222;4.510;2022-07-10T09:27:11;102602.09;;;17.83;100.00
27014;BME280;14556;52.222;4.510;2022-07-10T09:29:49;102599.22;;;17.84;100.00
27014;BME280;14556;52.222;4.510;2022-07-10T09:32:20;102588.59;;;17.90;100.00
27014;BME280;14556;52.222;4.510;2022-07-10T09:34:49;102592.56;;;18.00;100.00
27014;BME280;14556;52.222;4.510;2022-07-10T09:42:29;102591.16;;;18.25;100.00
27014;BME280;14556;52.222;4.510;2022-07-10T09:47:39;102591.97;;;18.32;100.00
27014;BME280;14556;52.222;4.510;2022-07-10T09:50:32;102592.63;;;18.41;100.00
27014;BME280;14556;52.222;4.510;2022-07-10T09:53:02;102596.16;;;18.48;100.00
27014;BME280;14556;52.222;4.510;2022-07-10T09:55:30;102581.16;;;18.53;100.00
27014;BME280;14556;52.222;4.510;2022-07-10T09:58:07;102586.78;;;18.58;96.65
27014;BME280;14556;52.222;4.510;2022-07-10T10:00:35;102570.91;;;18.61;94.68
27014;BME280;14556;52.222;4.510;2022-07-10T10:03:07;102574.66;;;18.67;90.70
27014;BME280;14556;52.222;4.510;2022-07-10T10:05:37;102573.81;;;18.67;88.93
27014;BME280;14556;52.222;4.510;2022-07-10T10:08:42;102580.28;;;18.72;93.99
27014;BME280;14556;52.222;4.510;2022-07-10T10:11:14;102575.72;;;18.66;95.11
27014;BME280;14556;52.222;4.510;2022-07-10T10:13:42;102570.06;;;18.75;91.53
27014;BME280;14556;52.222;4.510;2022-07-10T10:16:09;102573.38;;;18.83;93.12
27014;BME280;14556;52.222;4.510;2022-07-10T10:18:36;102560.44;;;18.85;89.42
27014;BME280;14556;52.222;4.510;2022-07-10T10:21:04;102569.81;;;18.96;91.78
27014;BME280;14556;52.222;4.510;2022-07-10T10:23:34;102563.72;;;19.08;91.55
27014;BME280;14556;52.222;4.510;2022-07-10T10:26:01;102561.63;;;19.10;91.34
27014;BME280;14556;52.222;4.510;2022-07-10T10:28:27;102559.97;;;19.02;87.60
27014;BME280;14556;52.222;4.510;2022-07-10T10:30:59;102561.66;;;19.03;87.69
27014;BME280;14556;52.222;4.510;2022-07-10T10:36:06;102569.13;;;19.08;88.78
27014;BME280;14556;52.222;4.510;2022-07-10T10:41:37;102564.53;;;19.22;88.71
27014;BME280;14556;52.222;4.510;2022-07-10T10:46:34;102563.97;;;19.52;87.39
27014;BME280;14556;52.222;4.510;2022-07-10T10:49:08;102553.94;;;19.53;86.48
27014;BME280;14556;52.222;4.510;2022-07-10T10:51:56;102561.84;;;19.54;86.81
27014;BME280;14556;52.222;4.510;2022-07-10T10:54:27;102552.06;;;19.53;84.98
27014;BME280;14556;52.222;4.510;2022-07-10T10:57:14;102547.19;;;19.62;79.67
27014;BME280;14556;52.222;4.510;2022-07-10T10:59:51;102551.78;;;19.62;84.48
27014;BME280;14556;52.222;4.510;2022-07-10T11:02:22;102548.84;;;19.63;85.51
27014;BME280;14556;52.222;4.510;2022-07-10T11:04:50;102537.81;;;19.58;80.99
27014;BME280;14556;52.222;4.510;2022-07-10T11:10:32;102543.66;;;19.62;86.06
27014;BME280;14556;52.222;4.510;2022-07-10T11:15:29;102540.16;;;19.87;84.57
27014;BME280;14556;52.222;4.510;2022-07-10T11:18:07;102541.41;;;19.84;83.92
27014;BME280;14556;52.222;4.510;2022-07-10T11:20:37;102547.91;;;19.83;85.37
27014;BME280;14556;52.222;4.510;2022-07-10T11:26:10;102545.19;;;19.83;85.70
27014;BME280;14556;52.222;4.510;2022-07-10T11:28:50;102535.72;;;19.92;87.94
27014;BME280;14556;52.222;4.510;2022-07-10T11:31:17;102529.47;;;19.92;87.49
27014;BME280;14556;52.222;4.510;2022-07-10T11:33:46;102527.41;;;19.87;87.70
27014;BME280;14556;52.222;4.510;2022-07-10T11:36:23;102540.72;;;19.96;89.32
27014;BME280;14556;52.222;4.510;2022-07-10T11:39:05;102514.63;;;19.95;88.07
27014;BME280;14556;52.222;4.510;2022-07-10T11:41:32;102537.53;;;19.99;89.01
27014;BME280;14556;52.222;4.510;2022-07-10T11:44:03;102527.50;;;20.06;89.40
27014;BME280;14556;52.222;4.510;2022-07-10T11:46:34;102533.94;;;20.12;90.67
27014;BME280;14556;52.222;4.510;2022-07-10T11:49:05;102525.72;;;20.19;87.65
27014;BME280;14556;52.222;4.510;2022-07-10T11:51:34;102517.84;;;20.10;88.91
27014;BME280;14556;52.222;4.510;2022-07-10T11:54:10;102512.03;;;20.07;86.62
27014;BME280;14556;52.222;4.510;2022-07-10T11:56:40;102530.47;;;20.23;85.22
27014;BME280;14556;52.222;4.510;2022-07-10T11:59:10;102527.16;;;20.21;87.88
27014;BME280;14556;52.222;4.510;2022-07-10T12:01:55;102538.41;;;20.25;90.93
27014;BME280;14556;52.222;4.510;2022-07-10T12:04:24;102527.53;;;20.25;87.78
27014;BME280;14556;52.222;4.510;2022-07-10T12:06:53;102538.72;;;20.35;88.61
27014;BME280;14556;52.222;4.510;2022-07-10T12:09:21;102539.09;;;20.39;90.98
27014;BME280;14556;52.222;4.510;2022-07-10T12:12:05;102513.06;;;20.31;84.52
27014;BME280;14556;52.222;4.510;2022-07-10T12:14:33;102536.53;;;20.44;89.27
27014;BME280;14556;52.222;4.510;2022-07-10T12:17:01;102524.88;;;20.44;87.45
27014;BME280;14556;52.222;4.510;2022-07-10T12:19:38;102528.00;;;20.40;86.09
27014;BME280;14556;52.222;4.510;2022-07-10T12:22:05;102532.25;;;20.55;88.68
27014;BME280;14556;52.222;4.510;2022-07-10T12:24:32;102536.25;;;20.52;88.28
27014;BME280;14556;52.222;4.510;2022-07-10T12:26:59;102536.09;;;20.47;90.04
27014;BME280;14556;52.222;4.510;2022-07-10T12:29:27;102528.47;;;20.56;87.58
27014;BME280;14556;52.222;4.510;2022-07-10T12:31:56;102530.47;;;20.68;88.98
27014;BME280;14556;52.222;4.510;2022-07-10T12:34:37;102534.44;;;20.65;88.99
27014;BME280;14556;52.222;4.510;2022-07-10T12:37:10;102539.50;;;20.61;87.45
27014;BME280;14556;52.222;4.510;2022-07-10T12:39:45;102544.34;;;20.59;89.85
27014;BME280;14556;52.222;4.510;2022-07-10T12:42:12;102538.84;;;20.66;89.87
27014;BME280;14556;52.222;4.510;2022-07-10T12:44:44;102541.34;;;20.68;88.10
27014;BME280;14556;52.222;4.510;2022-07-10T12:47:18;102534.91;;;20.62;87.78
27014;BME280;14556;52.222;4.510;2022-07-10T12:50:02;102537.00;;;20.60;89.90
27014;BME280;14556;52.222;4.510;2022-07-10T12:52:29;102533.41;;;20.66;90.21
27014;BME280;14556;52.222;4.510;2022-07-10T13:00:25;102528.78;;;20.66;89.34
27014;BME280;14556;52.222;4.510;2022-07-10T13:03:09;102515.66;;;20.63;86.77
27014;BME280;14556;52.222;4.510;2022-07-10T13:05:42;102521.25;;;20.69;89.31
27014;BME280;14556;52.222;4.510;2022-07-10T13:08:13;102512.09;;;20.63;83.94
27014;BME280;14556;52.222;4.510;2022-07-10T13:10:50;102505.53;;;20.52;80.56
27014;BME280;14556;52.222;4.510;2022-07-10T13:13:17;102518.38;;;20.63;87.74
27014;BME280;14556;52.222;4.510;2022-07-10T13:15:44;102522.31;;;20.68;90.34
27014;BME280;14556;52.222;4.510;2022-07-10T13:18:17;102516.03;;;20.67;90.18
27014;BME280;14556;52.222;4.510;2022-07-10T13:20:45;102518.22;;;20.77;88.69